»·PEaware :: N531AL KPHX-KBUR

N531AL :: KPHX-KBUR

FLIGHT INFORMATION

Flight Status: Arrived
Operator: Privately registered:
United States
More flights under this callsign
Pilot: Eduardo Elias G. (24838)
Aircraft: CESSNA 550 CITATION 2/S2/BRAVO
(C550)
More flights by this aircraft type
Origin: KPHX Phoenix Sky Harbor Intl
United States
Destination: KBUR Bob Hope-Burbank
United States
More flights between these airports :: More routes between these airports
Route: +CHILY4 EED HEC LYNXX8
File this flight plan on PilotEdge
Remarks:
Altitude:
(Current/Filed)
24,000ft
Speed:
(Current/Filed)
360kts
Departed: 01-Apr-20 08:39 PM
Arrived: 01-Apr-20 10:02 PM
Distance/Time
Traveled:
320nm/1:23
Distance/Time
To Go:
Arrived

Flight Plot

Page will automatically refresh every two minutes.

Flight plan parsing failed; only flown route is shown


Map Options




Map Legend


Flown Route
Filed Route
Departure Airport
Arrival Airport
Navaid (VOR, NDB)
Fix

Horizontal Profiles

Position Reports

Time Latitude Longitude Heading Altitude Ground
Speed
01-Apr-20 20:07 33.425407 -112.020550 272 1138ft 0kts
01-Apr-20 20:08 33.425407 -112.020550 272 1138ft 0kts
01-Apr-20 20:09 33.425407 -112.020550 272 1138ft 0kts
01-Apr-20 20:10 33.425407 -112.020550 272 1138ft 0kts
01-Apr-20 20:11 33.425407 -112.020550 272 1138ft 0kts
01-Apr-20 20:12 33.425407 -112.020550 272 1138ft 0kts
01-Apr-20 20:13 33.425407 -112.020550 272 1138ft 0kts
01-Apr-20 20:14 33.425407 -112.020550 272 1138ft 0kts
01-Apr-20 20:15 33.425407 -112.020550 272 1138ft 0kts
01-Apr-20 20:16 33.425407 -112.020550 272 1138ft 0kts
01-Apr-20 20:17 33.425407 -112.020550 272 1138ft 0kts
01-Apr-20 20:18 33.425407 -112.020550 272 1138ft 0kts
01-Apr-20 20:19 33.425407 -112.020550 272 1138ft 0kts
01-Apr-20 20:20 33.425407 -112.020550 272 1138ft 0kts
01-Apr-20 20:21 33.425407 -112.020550 272 1138ft 0kts
01-Apr-20 20:22 33.425408 -112.020553 272 1138ft 0kts
01-Apr-20 20:23 33.425408 -112.020556 272 1138ft 0kts
01-Apr-20 20:24 33.425408 -112.020559 272 1138ft 0kts
01-Apr-20 20:25 33.425408 -112.020562 272 1138ft 0kts
01-Apr-20 20:26 33.425408 -112.020565 272 1138ft 0kts
01-Apr-20 20:27 33.425408 -112.020568 272 1138ft 0kts
01-Apr-20 20:28 33.425408 -112.020571 272 1138ft 0kts
01-Apr-20 20:29 33.425408 -112.020574 272 1138ft 0kts
01-Apr-20 20:30 33.425408 -112.020577 272 1138ft 0kts
01-Apr-20 20:31 33.425408 -112.020580 272 1138ft 0kts
01-Apr-20 20:32 33.426332 -112.021757 350 1138ft 11kts
01-Apr-20 20:33 33.427787 -112.023369 269 1138ft 9kts
01-Apr-20 20:34 33.427845 -112.025914 307 1138ft 3kts
01-Apr-20 20:35 33.428188 -112.026901 353 1138ft 0kts
01-Apr-20 20:36 33.428190 -112.026902 353 1138ft 0kts
01-Apr-20 20:37 33.428708 -112.026935 11 1138ft 12kts
01-Apr-20 20:38 33.428844 -112.022387 88 1138ft 79kts
01-Apr-20 20:39 33.431728 -111.972598 79 3191ft 173kts
01-Apr-20 20:40 33.442445 -111.902737 80 5982ft 232kts
01-Apr-20 20:42 33.454868 -111.820975 80 8073ft 298kts
01-Apr-20 20:43 33.503952 -111.760360 358 11718ft 266kts
01-Apr-20 20:44 33.580373 -111.766803 351 14018ft 281kts
01-Apr-20 20:45 33.637723 -111.821412 302 16226ft 273kts
01-Apr-20 20:46 33.681553 -111.896787 301 18436ft 277kts
01-Apr-20 20:47 33.726287 -111.973483 301 20474ft 282kts
01-Apr-20 20:48 33.772105 -112.050997 301 22341ft 286kts
01-Apr-20 20:49 33.819199 -112.128473 300 23867ft 294kts
01-Apr-20 20:50 33.870400 -112.211805 301 23839ft 317kts
01-Apr-20 20:51 33.934170 -112.288396 319 23839ft 333kts
01-Apr-20 20:52 34.019404 -112.337663 332 23837ft 344kts
01-Apr-20 20:53 34.113911 -112.362478 345 23842ft 354kts
01-Apr-20 20:54 34.197571 -112.413986 318 23838ft 336kts
01-Apr-20 20:55 34.271494 -112.483198 320 23837ft 337kts
01-Apr-20 20:56 34.354551 -112.539364 328 23954ft 346kts
01-Apr-20 20:57 34.440972 -112.592869 329 23955ft 349kts
01-Apr-20 20:58 34.527364 -112.646481 329 23955ft 350kts
01-Apr-20 20:59 34.614299 -112.700639 329 23955ft 350kts
01-Apr-20 21:00 34.697132 -112.760560 304 23953ft 343kts
01-Apr-20 21:01 34.717674 -112.871729 273 23956ft 340kts
01-Apr-20 21:01 34.720843 -112.967330 271 23955ft 340kts
01-Apr-20 21:02 34.724218 -113.082364 272 23955ft 341kts
01-Apr-20 21:04 34.728543 -113.216828 272 23955ft 340kts
01-Apr-20 21:04 34.731690 -113.312629 272 23955ft 341kts
01-Apr-20 21:05 34.735451 -113.428385 272 23884ft 344kts
01-Apr-20 21:06 34.739199 -113.547050 272 23808ft 360kts
01-Apr-20 21:07 34.742935 -113.669852 272 23808ft 368kts
01-Apr-20 21:08 34.746643 -113.795368 272 23808ft 374kts
01-Apr-20 21:09 34.750285 -113.922015 272 23807ft 371kts
01-Apr-20 21:10 34.753816 -114.047272 272 23807ft 370kts
01-Apr-20 21:11 34.757242 -114.171793 272 23808ft 369kts
01-Apr-20 21:12 34.760617 -114.296741 272 23808ft 369kts
01-Apr-20 21:13 34.764037 -114.421167 272 23808ft 369kts
01-Apr-20 21:14 34.766671 -114.546152 271 23808ft 369kts
01-Apr-20 21:15 34.769148 -114.670866 270 23816ft 369kts
01-Apr-20 21:16 34.771635 -114.792142 271 23748ft 351kts
01-Apr-20 21:17 34.774082 -114.910205 271 23748ft 347kts
01-Apr-20 21:18 34.776416 -115.027355 271 23748ft 347kts
01-Apr-20 21:19 34.778638 -115.144871 271 23748ft 347kts
01-Apr-20 21:20 34.780746 -115.262630 271 23749ft 351kts
01-Apr-20 21:21 34.782747 -115.382114 271 23749ft 354kts
01-Apr-20 21:22 34.784648 -115.502274 271 23749ft 355kts
01-Apr-20 21:23 34.786442 -115.622453 271 23749ft 356kts
01-Apr-20 21:24 34.788132 -115.742577 271 23749ft 356kts
01-Apr-20 21:25 34.789718 -115.863061 271 23749ft 356kts
01-Apr-20 21:26 34.791204 -115.983448 271 23893ft 355kts
01-Apr-20 21:27 34.792597 -116.104522 271 23896ft 358kts
01-Apr-20 21:28 34.793907 -116.225533 271 23896ft 358kts
01-Apr-20 21:29 34.795197 -116.346553 271 23896ft 358kts
01-Apr-20 21:30 34.794032 -116.467758 266 23896ft 359kts
01-Apr-20 21:31 34.783801 -116.588593 264 23896ft 359kts
01-Apr-20 21:32 34.771983 -116.709491 264 23896ft 359kts
01-Apr-20 21:33 34.760213 -116.830614 264 23896ft 360kts
01-Apr-20 21:34 34.747703 -116.951355 263 23896ft 360kts
01-Apr-20 21:35 34.735226 -117.071947 263 23896ft 360kts
01-Apr-20 21:36 34.722708 -117.193625 264 23240ft 365kts
01-Apr-20 21:37 34.710199 -117.314629 264 21454ft 358kts
01-Apr-20 21:38 34.697856 -117.433452 264 19650ft 345kts
01-Apr-20 21:39 34.685990 -117.547355 264 17854ft 337kts
01-Apr-20 21:40 34.674305 -117.658868 264 16052ft 327kts
01-Apr-20 21:41 34.662980 -117.766736 264 14407ft 312kts
01-Apr-20 21:42 34.652173 -117.868104 264 13890ft 299kts
01-Apr-20 21:43 34.640849 -117.971905 264 12697ft 315kts
01-Apr-20 21:44 34.626354 -118.075997 258 11098ft 312kts
01-Apr-20 21:45 34.605223 -118.177441 255 9534ft 308kts
01-Apr-20 21:46 34.583470 -118.276148 255 8736ft 301kts
01-Apr-20 21:47 34.561572 -118.374321 255 8014ft 294kts
01-Apr-20 21:48 34.541718 -118.463318 255 7941ft 260kts
01-Apr-20 21:49 34.522651 -118.546731 251 7940ft 252kts
01-Apr-20 21:50 34.466965 -118.570811 174 6540ft 207kts
01-Apr-20 21:51 34.416604 -118.589232 202 5945ft 185kts
01-Apr-20 21:52 34.367935 -118.614197 202 5945ft 196kts
01-Apr-20 21:53 34.316476 -118.640581 202 5941ft 200kts
01-Apr-20 21:54 34.265884 -118.666462 201 5941ft 196kts
01-Apr-20 21:55 34.228282 -118.629295 113 4672ft 188kts
01-Apr-20 21:56 34.209337 -118.573312 112 4000ft 179kts
01-Apr-20 21:57 34.192132 -118.516299 92 3936ft 185kts
01-Apr-20 21:58 34.198931 -118.458371 88 3053ft 165kts
01-Apr-20 21:59 34.198979 -118.406386 92 1757ft 139kts
01-Apr-20 22:00 34.197902 -118.365939 92 725ft 83kts
01-Apr-20 22:01 34.198662 -118.360317 4 724ft 4kts
01-Apr-20 22:02 34.200444 -118.359557 347 724ft 0kts
01-Apr-20 22:03 34.200444 -118.359557 347 724ft 0kts

Navigation Log

Ident Type
Flight plan parsing failed, navigation log unavailable